EGBJ - Staverton Private
Distance from station: E 5mi, 14km
Updated: 07/15/2018 11:20am
NOT Current
Few Clouds
Few Clouds
 Wind from W
Wind: W 7 mph , 11 km/h
Temperature: 79°F , 26°C
Dew Point: 48°F , 9°C
Humidity: 34%
Barometer: 29.94 inHg , 1014 hPa
Clouds: Few Clouds
Visibility: 6 miles , 10 km
Cloud details: Few Clouds 4500 ft
2018/07/15 18:20 EGBJ 151820Z 27006KT 9999 FEW045 26/09 Q1014